Time;durP1;ratioP1;P1;durP2;ratioP2;P2;SDS_P1;SDS_P2;PMS_P1;PMS_P2;Temp;Humidity;BMP_temperature;BMP_pressure;BME280_temperature;BME280_humidity;BME280_pressure;Samples;Min_cycle;Max_cycle;Signal;HPM_P1;HPM_P2
2022/06/11 00:01:09;;;;;;;13.07;3.10;;;;;;;16.34;100.00;102000.94;5026889;28;20034;-68
2022/06/11 00:03:35;;;;;;;15.77;2.72;;;;;;;16.21;100.00;101999.94;5029076;28;20420;-69
2022/06/11 00:06:01;;;;;;;12.88;3.40;;;;;;;16.17;100.00;101998.09;5018811;28;20032;-69
2022/06/11 00:08:27;;;;;;;18.58;3.58;;;;;;;16.10;100.00;101999.78;5028048;28;20398;-70
2022/06/11 00:10:52;;;;;;;14.05;3.13;;;;;;;16.05;100.00;102006.81;5018416;28;20026;-70
2022/06/11 00:13:22;;;;;;;11.45;3.47;;;;;;;16.04;100.00;101997.03;5028767;28;20434;-68
2022/06/11 00:15:49;;;;;;;13.82;3.30;;;;;;;16.07;100.00;102004.16;5018782;28;20037;-68
2022/06/11 00:18:15;;;;;;;11.73;3.30;;;;;;;16.07;100.00;101997.06;5022204;28;20037;-68
2022/06/11 00:20:40;;;;;;;14.77;4.30;;;;;;;16.05;100.00;101997.94;5024794;28;20071;-69
2022/06/11 00:23:05;;;;;;;17.00;2.97;;;;;;;16.07;100.00;101994.41;5030240;28;20537;-70
2022/06/11 00:25:32;;;;;;;13.77;2.97;;;;;;;16.04;100.00;101994.41;5015733;28;20036;-68
2022/06/11 00:27:58;;;;;;;17.15;3.28;;;;;;;16.07;100.00;101997.06;5021447;28;20489;-68
2022/06/11 00:30:24;;;;;;;12.18;3.08;;;;;;;15.94;100.00;101989.81;5026413;28;20025;-69
2022/06/11 00:32:49;;;;;;;10.52;2.85;;;;;;;15.92;100.00;101991.59;5022447;28;20033;-69
2022/06/11 00:35:16;;;;;;;13.27;3.28;;;;;;;15.91;100.00;101997.75;5031010;28;20033;-69
2022/06/11 00:37:42;;;;;;;13.75;3.20;;;;;;;15.93;100.00;101998.69;5026297;28;20029;-69
2022/06/11 00:40:09;;;;;;;11.00;2.75;;;;;;;15.95;100.00;101992.53;5023775;28;20026;-68
2022/06/11 00:42:35;;;;;;;11.65;3.60;;;;;;;15.96;100.00;101996.94;5024953;28;20053;-69
2022/06/11 00:45:34;;;;;;;14.52;3.00;;;;;;;15.92;100.00;101991.59;5026970;28;20428;-68
2022/06/11 00:48:06;;;;;;;12.18;3.20;;;;;;;15.93;100.00;101999.56;5015771;28;20409;-70
2022/06/11 00:50:48;;;;;;;13.82;3.35;;;;;;;15.84;100.00;102000.34;5022942;28;20048;-69
2022/06/11 00:53:21;;;;;;;12.20;2.65;;;;;;;15.90;100.00;101994.22;5017799;28;20038;-70
2022/06/11 00:55:48;;;;;;;13.77;2.43;;;;;;;15.94;100.00;101997.78;5017150;28;20040;-69
2022/06/11 00:58:24;;;;;;;11.23;2.45;;;;;;;15.88;100.00;101984.47;5013429;28;20360;-69
2022/06/11 01:00:56;;;;;;;11.27;2.88;;;;;;;15.85;100.00;101996.81;5029074;28;20044;-70
2022/06/11 01:03:26;;;;;;;14.30;2.22;;;;;;;15.85;100.00;101991.50;5020206;28;20100;-69
2022/06/11 01:06:24;;;;;;;10.00;2.65;;;;;;;15.88;100.00;101989.75;5031534;28;20057;-68
2022/06/11 01:08:58;;;;;;;15.15;2.78;;;;;;;15.90;100.00;101998.63;5019615;28;20025;-68
2022/06/11 01:11:32;;;;;;;12.77;2.28;;;;;;;15.95;100.00;101992.53;5025059;28;20057;-69
2022/06/11 01:14:21;;;;;;;11.38;2.25;;;;;;;15.93;100.00;101993.38;5026927;28;20025;-70
2022/06/11 01:16:56;;;;;;;13.70;3.03;;;;;;;15.89;100.00;101986.25;5030616;28;20046;-69
2022/06/11 01:19:36;;;;;;;12.73;2.30;;;;;;;15.89;100.00;101992.44;5035013;28;20045;-69
2022/06/11 01:22:07;;;;;;;17.15;3.00;;;;;;;15.92;100.00;101994.25;5036090;28;20030;-69
2022/06/11 01:25:03;;;;;;;11.93;2.17;;;;;;;15.97;100.00;101992.53;5034878;28;20066;-68
2022/06/11 01:27:52;;;;;;;7.18;2.03;;;;;;;15.95;100.00;101996.94;5032639;28;20033;-68
2022/06/11 01:30:23;;;;;;;12.88;2.72;;;;;;;15.98;100.00;101997.00;5024535;28;20441;-69
2022/06/11 01:32:54;;;;;;;11.60;2.30;;;;;;;15.96;100.00;101996.94;5016632;28;20473;-69
2022/06/11 01:35:28;;;;;;;9.98;2.72;;;;;;;15.95;100.00;101991.63;5022833;28;20033;-69
2022/06/11 01:38:06;;;;;;;8.25;2.58;;;;;;;15.88;100.00;102003.03;5018932;28;20025;-69
2022/06/11 01:40:56;;;;;;;9.20;2.10;;;;;;;15.80;100.00;101995.88;5016618;28;20026;-70
2022/06/11 01:43:33;;;;;;;13.55;2.63;;;;;;;15.72;100.00;102000.16;5022562;28;20026;-69
2022/06/11 01:46:01;;;;;;;12.00;2.40;;;;;;;15.79;100.00;102001.09;5042120;28;20419;-68
2022/06/11 01:48:28;;;;;;;11.45;2.55;;;;;;;15.78;100.00;101994.03;5027679;28;20021;-68
2022/06/11 01:51:18;;;;;;;10.27;2.75;;;;;;;15.71;100.00;101990.41;5031213;28;20405;-69
2022/06/11 01:53:59;;;;;;;13.73;2.92;;;;;;;15.73;100.00;101991.28;5031774;28;20104;-68
2022/06/11 01:56:24;;;;;;;13.73;2.95;;;;;;;15.65;100.00;102001.84;5020015;28;20397;-69
2022/06/11 01:58:55;;;;;;;7.68;2.38;;;;;;;15.64;100.00;101997.38;5015971;28;20105;-68
2022/06/11 02:01:33;;;;;;;16.85;3.97;;;;;;;15.56;100.00;101992.81;5022620;28;20045;-70
2022/06/11 02:04:33;;;;;;;14.20;2.95;;;;;;;15.59;100.00;101996.41;5035251;28;20024;-68
2022/06/11 02:07:01;;;;;;;17.58;3.17;;;;;;;15.51;100.00;102006.91;5016835;28;20030;-69
2022/06/11 02:09:51;;;;;;;9.82;2.70;;;;;;;15.52;100.00;102008.69;5037148;28;20357;-69
2022/06/11 02:12:38;;;;;;;15.93;3.25;;;;;;;15.59;100.00;102008.81;5020795;28;20029;-69
2022/06/11 02:15:16;;;;;;;13.30;3.20;;;;;;;15.46;100.00;102008.63;5023831;28;20029;-69
2022/06/11 02:17:45;;;;;;;18.33;3.25;;;;;;;15.41;100.00;102010.31;5031530;28;20052;-69
2022/06/11 02:20:18;;;;;;;16.70;4.38;;;;;;;15.37;100.00;102008.47;5017973;28;20417;-68
2022/06/11 02:22:50;;;;;;;17.60;2.67;;;;;;;15.37;100.00;102013.78;5032409;28;20068;-68
2022/06/11 02:25:21;;;;;;;12.32;2.78;;;;;;;15.39;100.00;102016.47;5031670;28;20025;-70
2022/06/11 02:27:50;;;;;;;20.33;3.22;;;;;;;15.40;100.00;102013.81;5019348;28;20030;-69
2022/06/11 02:30:21;;;;;;;17.55;3.92;;;;;;;15.38;100.00;102014.66;5028947;28;20033;-69
2022/06/11 02:32:47;;;;;;;22.65;3.78;;;;;;;15.28;100.00;102011.88;5021532;28;20428;-69
2022/06/11 02:35:22;;;;;;;18.33;4.25;;;;;;;15.27;100.00;102011.84;5034097;28;20033;-68
2022/06/11 02:37:48;;;;;;;17.95;3.22;;;;;;;15.20;100.00;102012.63;5033077;28;20075;-68
2022/06/11 02:40:32;;;;;;;16.38;3.28;;;;;;;15.20;100.00;102018.81;5026624;28;20030;-69
2022/06/11 02:42:58;;;;;;;22.27;4.03;;;;;;;15.25;100.00;102008.28;5015154;28;20457;-70
2022/06/11 02:45:24;;;;;;;17.70;3.47;;;;;;;15.12;100.00;102012.50;5032035;28;20025;-69
2022/06/11 02:47:52;;;;;;;17.00;2.95;;;;;;;15.14;100.00;102016.94;5033039;28;20435;-69
2022/06/11 02:50:23;;;;;;;14.88;3.13;;;;;;;15.07;100.00;102020.38;5034062;28;20049;-68
2022/06/11 02:52:48;;;;;;;24.45;3.42;;;;;;;15.09;100.00;102025.69;5022322;28;20101;-69
2022/06/11 02:55:14;;;;;;;18.13;3.55;;;;;;;15.13;100.00;102020.47;5030499;28;20117;-68
2022/06/11 02:57:39;;;;;;;17.38;3.70;;;;;;;15.17;100.00;102017.00;5032947;28;21629;-69
2022/06/11 03:00:09;;;;;;;16.55;3.97;;;;;;;15.11;100.00;102027.50;5021498;28;20032;-68
2022/06/11 03:02:35;;;;;;;22.92;3.58;;;;;;;15.12;100.00;102029.28;5025452;28;20029;-69
2022/06/11 03:05:00;;;;;;;17.55;4.10;;;;;;;15.15;100.00;102033.75;5027974;28;20033;-69
2022/06/11 03:07:26;;;;;;;18.15;4.07;;;;;;;15.06;100.00;102038.91;5033374;28;20049;-68
2022/06/11 03:09:51;;;;;;;15.23;3.72;;;;;;;15.07;100.00;102044.25;5031980;28;20022;-69
2022/06/11 03:12:17;;;;;;;23.88;4.55;;;;;;;15.06;100.00;102044.22;5026018;28;20396;-69
2022/06/11 03:14:43;;;;;;;22.08;3.30;;;;;;;15.09;100.00;102044.25;5033841;28;20032;-70
2022/06/11 03:17:11;;;;;;;19.92;3.75;;;;;;;15.05;100.00;102040.66;5031514;28;20033;-70
2022/06/11 03:19:37;;;;;;;21.02;3.50;;;;;;;14.95;100.00;102044.91;5033656;28;20032;-68
2022/06/11 03:22:02;;;;;;;23.55;3.60;;;;;;;14.95;100.00;102046.69;5033440;28;20022;-70
2022/06/11 03:24:28;;;;;;;19.10;3.08;;;;;;;14.96;100.00;102045.78;5033950;28;20420;-68
2022/06/11 03:26:55;;;;;;;19.92;3.75;;;;;;;14.93;100.00;102043.09;5029427;28;20087;-69
2022/06/11 03:29:21;;;;;;;18.63;3.75;;;;;;;14.96;100.00;102051.09;5033411;28;20029;-69
2022/06/11 03:31:47;;;;;;;15.85;3.42;;;;;;;14.98;100.00;102058.22;5034489;28;20025;-68
2022/06/11 03:34:14;;;;;;;22.58;4.20;;;;;;;14.92;100.00;102051.91;5017807;28;20061;-68
2022/06/11 03:36:42;;;;;;;21.48;4.00;;;;;;;14.94;100.00;102058.13;5012862;28;20104;-69
2022/06/11 03:39:08;;;;;;;20.55;3.90;;;;;;;14.92;100.00;102062.50;5013990;28;20033;-69
2022/06/11 03:41:33;;;;;;;19.05;3.47;;;;;;;14.87;100.00;102065.09;5030942;28;20508;-68
2022/06/11 03:43:58;;;;;;;20.83;3.50;;;;;;;14.80;100.00;102063.19;5030365;28;20082;-70
2022/06/11 03:46:24;;;;;;;20.42;3.42;;;;;;;14.89;100.00;102075.72;5016734;28;20029;-69
2022/06/11 03:48:50;;;;;;;23.90;4.35;;;;;;;14.78;100.00;102076.38;5033120;28;20029;-68
2022/06/11 03:51:16;;;;;;;20.13;3.60;;;;;;;14.80;100.00;102072.03;5030761;28;20054;-68
2022/06/11 03:53:42;;;;;;;23.77;4.35;;;;;;;14.81;100.00;102081.75;5029297;28;20458;-69
2022/06/11 03:56:09;;;;;;;20.67;3.70;;;;;;;14.88;100.00;102076.56;5026967;28;20470;-70
2022/06/11 03:58:36;;;;;;;22.02;4.38;;;;;;;14.87;100.00;102075.69;5031414;28;20029;-69
2022/06/11 04:01:18;;;;;;;19.65;4.35;;;;;;;14.84;100.00;102076.50;5022784;28;20036;-69
2022/06/11 04:03:54;;;;;;;26.20;4.40;;;;;;;14.75;100.00;102086.06;5031045;28;20180;-69
2022/06/11 04:06:34;;;;;;;27.58;4.18;;;;;;;14.80;100.00;102079.97;5031144;28;20025;-69
2022/06/11 04:09:00;;;;;;;22.25;3.72;;;;;;;14.79;100.00;102083.47;5037948;28;20032;-69
2022/06/11 04:11:26;;;;;;;31.25;5.25;;;;;;;14.72;100.00;102089.53;5024697;28;20080;-69
2022/06/11 04:13:53;;;;;;;24.80;5.50;;;;;;;14.79;100.00;102088.78;5012010;28;20030;-69
2022/06/11 04:16:28;;;;;;;25.60;4.18;;;;;;;14.81;100.00;102091.44;5013441;28;20025;-70
2022/06/11 04:18:56;;;;;;;21.65;4.00;;;;;;;14.81;100.00;102089.72;5020529;28;20075;-69
2022/06/11 04:21:23;;;;;;;20.85;4.43;;;;;;;14.78;100.00;102096.69;5027741;28;20480;-69
2022/06/11 04:23:52;;;;;;;25.80;4.05;;;;;;;14.82;100.00;102102.06;5016728;28;20013;-69
2022/06/11 04:26:22;;;;;;;25.08;4.18;;;;;;;14.77;100.00;102098.47;5027975;28;20079;-69
2022/06/11 04:28:49;;;;;;;20.63;3.55;;;;;;;14.82;100.00;102099.44;5031494;28;20386;-69
2022/06/11 04:31:15;;;;;;;28.90;5.32;;;;;;;14.85;100.00;102114.50;5022614;28;20064;-69
2022/06/11 04:33:43;;;;;;;20.08;4.25;;;;;;;14.84;100.00;102108.31;5013380;28;20505;-69
2022/06/11 04:36:09;;;;;;;22.23;4.45;;;;;;;14.87;100.00;102118.09;5019733;28;20059;-69
2022/06/11 04:38:34;;;;;;;34.15;5.15;;;;;;;14.90;100.00;102115.47;5032898;28;20056;-69
2022/06/11 04:41:00;;;;;;;32.08;5.15;;;;;;;14.92;100.00;102115.50;5028819;28;20040;-68
2022/06/11 04:43:25;;;;;;;18.30;4.25;;;;;;;14.90;100.00;102119.91;5023858;28;20029;-69
2022/06/11 04:45:50;;;;;;;28.73;5.38;;;;;;;14.98;100.00;102121.81;5024371;28;20034;-70
2022/06/11 04:48:16;;;;;;;26.17;4.93;;;;;;;15.00;100.00;102120.09;5026866;28;20361;-68
2022/06/11 04:50:42;;;;;;;22.38;4.93;;;;;;;15.03;100.00;102124.56;5028956;28;20075;-68
2022/06/11 04:53:08;;;;;;;34.00;4.88;;;;;;;14.99;100.00;102122.72;5031993;28;20030;-69
2022/06/11 04:55:33;;;;;;;26.38;5.30;;;;;;;15.04;100.00;102126.34;5034566;28;20034;-69
2022/06/11 04:57:59;;;;;;;28.10;4.50;;;;;;;15.10;100.00;102129.13;5031061;28;20025;-69
2022/06/11 05:00:28;;;;;;;22.73;4.75;;;;;;;15.22;100.00;102127.53;5024977;28;20037;-68
2022/06/11 05:02:54;;;;;;;27.65;5.55;;;;;;;15.23;100.00;102122.25;5032657;28;20029;-68
2022/06/11 05:05:20;;;;;;;30.38;5.40;;;;;;;15.26;100.00;102134.69;5032269;28;20067;-69
2022/06/11 05:07:47;;;;;;;26.20;4.35;;;;;;;15.32;100.00;102132.16;5025041;28;20075;-69
2022/06/11 05:10:14;;;;;;;29.48;5.43;;;;;;;15.39;100.00;102133.16;5041424;28;20025;-69
2022/06/11 05:12:40;;;;;;;31.48;5.45;;;;;;;15.43;100.00;102135.00;5026852;28;20037;-69
2022/06/11 05:15:06;;;;;;;28.92;4.90;;;;;;;15.46;100.00;102141.25;5037609;28;20076;-68
2022/06/11 05:17:32;;;;;;;32.80;4.90;;;;;;;15.47;100.00;102137.72;5034961;28;20040;-69
2022/06/11 05:19:59;;;;;;;35.30;5.22;;;;;;;15.59;100.00;102136.16;5031724;28;20033;-69
2022/06/11 05:22:25;;;;;;;23.83;5.57;;;;;;;15.61;100.00;102139.72;5026004;28;20033;-69
2022/06/11 05:24:51;;;;;;;27.83;5.15;;;;;;;15.68;100.00;102144.25;5034488;28;20385;-69
2022/06/11 05:27:21;;;;;;;35.58;5.82;;;;;;;15.70;100.00;102144.28;5035488;28;20021;-69
2022/06/11 05:29:53;;;;;;;34.45;5.55;;;;;;;15.75;100.00;102137.28;5035978;28;20061;-69
2022/06/11 05:32:21;;;;;;;37.63;6.20;;;;;;;15.83;100.00;102141.88;5050582;28;20028;-70
2022/06/11 05:34:47;;;;;;;25.75;5.70;;;;;;;15.89;100.00;102135.78;5034803;28;20029;-69
2022/06/11 05:37:13;;;;;;;37.05;5.63;;;;;;;15.89;100.00;102145.50;5035209;28;20388;-68
2022/06/11 05:39:41;;;;;;;31.80;6.40;;;;;;;15.88;100.00;102143.72;5033883;28;20038;-69
2022/06/11 05:42:06;;;;;;;29.23;5.43;;;;;;;15.98;100.00;102156.28;5035940;28;20032;-69
2022/06/11 05:44:32;;;;;;;30.42;5.43;;;;;;;16.04;100.00;102145.72;5020202;28;20033;-69
2022/06/11 05:46:57;;;;;;;28.98;5.22;;;;;;;16.07;100.00;102148.44;5024577;28;20576;-69
2022/06/11 05:49:28;;;;;;;32.17;5.10;;;;;;;16.16;100.00;102150.34;5035305;28;20132;-68
2022/06/11 05:52:01;;;;;;;22.85;4.70;;;;;;;16.18;100.00;102153.88;5031377;28;20026;-69
2022/06/11 05:54:31;;;;;;;23.80;4.57;;;;;;;16.17;100.00;102155.66;5025973;28;20029;-68
2022/06/11 05:56:57;;;;;;;26.27;4.47;;;;;;;16.27;100.00;102158.47;5025003;28;20375;-69
2022/06/11 05:59:26;;;;;;;25.08;4.07;;;;;;;16.30;100.00;102161.16;5033500;28;20108;-69
2022/06/11 06:01:54;;;;;;;29.42;4.85;;;;;;;16.28;100.00;102161.13;5027469;28;20179;-69
2022/06/11 06:04:19;;;;;;;28.45;4.50;;;;;;;16.29;100.00;102157.63;5031844;28;20104;-69
2022/06/11 06:06:45;;;;;;;24.15;4.70;;;;;;;16.35;100.00;102154.16;5030061;28;20168;-70
2022/06/11 06:09:10;;;;;;;20.98;4.00;;;;;;;16.42;100.00;102150.69;5042805;28;20448;-68
2022/06/11 06:11:35;;;;;;;19.67;3.78;;;;;;;16.42;100.00;102163.97;5036873;28;20033;-68
2022/06/11 06:14:01;;;;;;;24.08;4.53;;;;;;;16.40;100.00;102154.19;5034087;28;20036;-69
2022/06/11 06:16:31;;;;;;;25.35;4.03;;;;;;;16.43;100.00;102159.56;5031975;28;20060;-68
2022/06/11 06:18:59;;;;;;;19.63;3.90;;;;;;;16.45;100.00;102158.69;5020656;28;20026;-70
2022/06/11 06:21:27;;;;;;;28.80;4.95;;;;;;;16.50;100.00;102162.31;5019026;28;20057;-68
2022/06/11 06:23:53;;;;;;;24.33;3.50;;;;;;;16.47;100.00;102162.28;5034458;28;20505;-69
2022/06/11 06:26:20;;;;;;;24.60;4.88;;;;;;;16.51;100.00;102164.09;5028433;28;20108;-70
2022/06/11 06:28:46;;;;;;;20.75;4.00;;;;;;;16.62;100.00;102166.91;5034039;28;20025;-70
2022/06/11 06:31:14;;;;;;;25.52;3.63;;;;;;;16.62;100.00;102163.34;5030820;28;20044;-70
2022/06/11 06:33:40;;;;;;;22.50;4.43;;;;;;;16.69;100.00;102167.88;5033232;28;20034;-69
2022/06/11 06:36:07;;;;;;;27.95;4.60;;;;;;;16.82;100.00;102174.22;5031912;28;20052;-68
2022/06/11 06:38:34;;;;;;;24.08;4.00;;;;;;;16.85;100.00;102174.28;5026631;28;20051;-68
2022/06/11 06:41:00;;;;;;;17.88;3.60;;;;;;;16.85;100.00;102180.47;5034095;28;20040;-70
2022/06/11 06:43:26;;;;;;;21.75;4.65;;;;;;;16.89;100.00;102180.50;5027542;28;20025;-71
2022/06/11 06:45:52;;;;;;;21.85;4.10;;;;;;;16.86;100.00;102176.94;5023138;28;20469;-71
2022/06/11 06:48:17;;;;;;;20.33;3.88;;;;;;;16.82;100.00;102180.44;5030360;28;20043;-70
2022/06/11 06:50:43;;;;;;;21.15;3.67;;;;;;;16.86;100.00;102182.25;5028913;28;20156;-71
2022/06/11 06:53:08;;;;;;;25.80;4.90;;;;;;;16.97;100.00;102184.16;5024680;28;20017;-70
2022/06/11 06:55:34;;;;;;;21.02;3.88;;;;;;;17.03;100.00;102174.50;5031566;28;20055;-71
2022/06/11 06:57:59;;;;;;;24.27;4.70;;;;;;;17.16;100.00;102177.31;5034485;28;20167;-71
2022/06/11 07:00:25;;;;;;;23.60;4.43;;;;;;;17.23;100.00;102181.81;5032674;28;20105;-71
2022/06/11 07:02:53;;;;;;;22.75;4.43;;;;;;;17.22;100.00;102184.47;5030735;28;20030;-70
2022/06/11 07:05:19;;;;;;;29.33;4.50;;;;;;;17.33;100.00;102178.34;5022812;28;20489;-70
2022/06/11 07:07:48;;;;;;;19.15;3.58;;;;;;;17.41;100.00;102190.88;5030527;28;20060;-71
2022/06/11 07:10:14;;;;;;;17.98;4.05;;;;;;;17.36;100.00;102193.47;5022181;28;20033;-70
2022/06/11 07:12:39;;;;;;;18.80;3.72;;;;;;;17.38;100.00;102190.81;5014458;28;20060;-71
2022/06/11 07:15:06;;;;;;;21.95;3.90;;;;;;;17.35;100.00;102197.03;5021020;28;20481;-71
2022/06/11 07:17:40;;;;;;;15.48;3.30;;;;;;;17.38;100.00;102197.03;5029983;28;20033;-72
2022/06/11 07:20:24;;;;;;;18.95;3.38;;;;;;;17.39;100.00;102198.84;5032324;28;20030;-71
2022/06/11 07:23:04;;;;;;;15.00;3.72;;;;;;;17.46;100.00;102195.34;5022934;28;20041;-70
2022/06/11 07:25:30;;;;;;;16.95;3.15;;;;;;;17.44;100.00;102193.53;5030810;28;20022;-69
2022/06/11 07:28:06;;;;;;;20.27;3.47;;;;;;;17.55;100.00;102194.53;5034138;28;20031;-70
2022/06/11 07:30:37;;;;;;;25.05;4.03;;;;;;;17.69;100.00;102197.34;5027197;28;20025;-70
2022/06/11 07:33:07;;;;;;;18.45;4.18;;;;;;;17.71;99.78;102195.56;5027896;28;20021;-70
2022/06/11 07:35:35;;;;;;;24.40;4.80;;;;;;;17.80;100.00;102192.09;5021197;28;20076;-71
2022/06/11 07:38:05;;;;;;;20.58;4.13;;;;;;;17.71;100.00;102200.88;5020417;28;20021;-70
2022/06/11 07:40:31;;;;;;;14.85;2.97;;;;;;;17.75;100.00;102199.16;5022788;28;20064;-70
2022/06/11 07:42:56;;;;;;;18.05;4.18;;;;;;;17.86;100.00;102200.13;5027747;28;20033;-70
2022/06/11 07:45:22;;;;;;;18.05;3.03;;;;;;;17.96;99.78;102201.13;5030993;28;20034;-71
2022/06/11 07:47:53;;;;;;;13.73;2.90;;;;;;;17.96;95.65;102195.78;5026032;28;20022;-71
2022/06/11 07:50:19;;;;;;;17.08;3.20;;;;;;;17.86;91.75;102205.44;5016034;28;20050;-71
2022/06/11 07:52:45;;;;;;;18.50;2.83;;;;;;;17.93;94.73;102206.44;5024820;28;20124;-71
2022/06/11 07:55:12;;;;;;;17.77;3.15;;;;;;;18.04;93.53;102210.06;5027803;28;20120;-72
2022/06/11 07:57:39;;;;;;;19.55;2.85;;;;;;;18.11;94.99;102211.00;5025333;28;20457;-71
2022/06/11 08:00:08;;;;;;;12.95;3.13;;;;;;;18.13;92.90;102219.91;5024229;28;20480;-71
2022/06/11 08:02:34;;;;;;;13.57;3.00;;;;;;;18.12;90.68;102208.38;5017288;28;20029;-71
2022/06/11 08:04:59;;;;;;;13.63;2.75;;;;;;;18.07;89.72;102207.44;5019861;28;20030;-72
2022/06/11 08:07:27;;;;;;;16.15;3.47;;;;;;;18.15;87.80;102216.38;5026888;28;20381;-71
2022/06/11 08:09:53;;;;;;;12.10;2.78;;;;;;;18.20;88.37;102217.31;5024459;28;20025;-71
2022/06/11 08:12:19;;;;;;;15.35;3.38;;;;;;;18.31;89.58;102209.38;5023888;28;20120;-72
2022/06/11 08:14:45;;;;;;;13.02;3.03;;;;;;;18.36;89.17;102222.72;5026075;28;20170;-71
2022/06/11 08:17:10;;;;;;;12.38;2.67;;;;;;;18.45;90.17;102220.13;5028496;28;20423;-71
2022/06/11 08:19:36;;;;;;;19.35;3.88;;;;;;;18.51;92.21;102227.25;5023205;28;20116;-71
2022/06/11 08:22:02;;;;;;;12.73;2.35;;;;;;;18.54;88.73;102228.16;5021296;28;20026;-70
2022/06/11 08:24:27;;;;;;;16.55;3.40;;;;;;;18.54;90.89;102221.94;5025279;28;20109;-70
2022/06/11 08:26:52;;;;;;;15.90;3.05;;;;;;;18.65;89.04;102222.91;5029471;28;20480;-72
2022/06/11 08:29:18;;;;;;;16.40;3.40;;;;;;;18.68;87.86;102230.03;5031521;28;20029;-71
2022/06/11 08:31:44;;;;;;;14.48;3.08;;;;;;;18.59;87.20;102224.63;5032087;28;20350;-71
2022/06/11 08:34:09;;;;;;;14.30;3.08;;;;;;;18.73;88.08;102220.25;5017574;28;20088;-71
2022/06/11 08:36:34;;;;;;;15.30;3.33;;;;;;;18.69;86.21;102216.69;5030752;28;20021;-71
2022/06/11 08:38:59;;;;;;;14.75;2.90;;;;;;;18.59;81.68;102225.50;5016694;28;20034;-71
2022/06/11 08:41:33;;;;;;;18.52;2.75;;;;;;;18.68;82.17;102232.69;5013641;28;20022;-68
2022/06/11 08:44:01;;;;;;;;;;;;;;;18.65;80.42;102221.97;5031483;28;20018;-69
2022/06/11 08:46:30;;;;;;;13.30;2.50;;;;;;;18.81;80.91;102218.50;5023107;28;20316;-69
2022/06/11 08:49:08;;;;;;;20.27;3.33;;;;;;;18.85;78.76;102220.28;5029703;28;20416;-69
2022/06/11 08:51:44;;;;;;;16.50;2.40;;;;;;;18.88;79.31;102211.44;5021611;28;20095;-69
2022/06/11 08:54:14;;;;;;;17.88;3.33;;;;;;;19.04;80.64;102213.31;5025681;28;20026;-70
2022/06/11 08:57:01;;;;;;;15.07;2.90;;;;;;;18.98;78.25;102215.06;5024358;28;20362;-71
2022/06/11 08:59:51;;;;;;;12.43;2.47;;;;;;;19.09;80.28;102225.78;5023525;28;20482;-71
2022/06/11 09:02:27;;;;;;;17.20;2.70;;;;;;;19.06;78.68;102223.97;5028026;28;20445;-69
2022/06/11 09:05:02;;;;;;;18.73;3.28;;;;;;;19.07;78.93;102207.06;5013091;28;20018;-69
2022/06/11 09:07:43;;;;;;;10.85;3.08;;;;;;;19.13;80.16;102207.09;5025210;28;20025;-70
2022/06/11 09:10:38;;;;;;;13.07;2.78;;;;;;;19.38;83.72;102212.50;5023054;28;20033;-69
2022/06/11 09:13:33;;;;;;;19.02;3.72;;;;;;;19.67;80.28;102203.66;5017219;28;20030;-69
2022/06/11 09:16:10;;;;;;;15.95;2.92;;;;;;;19.75;78.86;102207.22;5019842;28;20052;-69
2022/06/11 09:18:46;;;;;;;17.13;3.28;;;;;;;19.72;78.97;102201.84;5030819;28;20036;-70
2022/06/11 09:21:20;;;;;;;17.88;3.83;;;;;;;19.61;80.13;102199.16;5027089;28;20031;-71
2022/06/11 09:24:05;;;;;;;14.65;3.05;;;;;;;19.46;81.24;102208.06;5031322;28;20029;-69
2022/06/11 09:26:48;;;;;;;19.05;4.35;;;;;;;19.54;82.61;102214.28;5025568;28;20030;-69
2022/06/11 09:29:32;;;;;;;12.10;3.22;;;;;;;19.37;80.57;102213.38;5024736;28;20024;-69
2022/06/11 09:32:00;;;;;;;16.73;3.25;;;;;;;19.38;80.71;102220.50;5024267;28;20030;-68
2022/06/11 09:34:47;;;;;;;18.27;2.95;;;;;;;19.53;82.60;102212.53;5025790;28;20473;-68
2022/06/11 09:37:23;;;;;;;20.92;4.00;;;;;;;19.72;80.76;102212.53;5030511;28;20053;-67
2022/06/11 09:40:04;;;;;;;14.27;3.08;;;;;;;19.87;77.07;102217.91;5031589;28;20025;-67
2022/06/11 09:42:39;;;;;;;11.25;3.08;;;;;;;19.82;77.34;102217.03;5031302;28;20033;-67
2022/06/11 09:45:19;;;;;;;12.75;3.30;;;;;;;19.98;76.53;102209.91;5026858;28;20030;-67
2022/06/11 09:48:11;;;;;;;18.02;3.40;;;;;;;20.11;78.47;102210.75;5025016;28;20473;-67
2022/06/11 09:51:18;;;;;;;14.00;2.85;;;;;;;20.06;75.80;102217.88;5035508;28;20058;-68
2022/06/11 09:54:01;;;;;;;16.83;3.22;;;;;;;19.96;76.73;102221.47;5015842;28;20049;-69
2022/06/11 09:56:47;;;;;;;19.88;3.55;;;;;;;19.88;79.21;102225.03;5027774;28;20040;-68
2022/06/11 09:59:15;;;;;;;17.83;3.53;;;;;;;19.91;78.22;102215.25;5033567;28;20056;-68
2022/06/11 10:01:50;;;;;;;16.08;3.00;;;;;;;19.66;73.77;102217.88;5035475;28;20389;-69
2022/06/11 10:04:20;;;;;;;16.38;4.15;;;;;;;19.67;74.09;102214.31;5027047;28;20147;-70
2022/06/11 10:06:54;;;;;;;16.55;3.20;;;;;;;19.89;74.76;102217.91;5033537;28;20397;-69
2022/06/11 10:09:26;;;;;;;14.68;3.10;;;;;;;20.28;75.57;102231.22;5035355;28;20032;-69
2022/06/11 10:11:58;;;;;;;16.40;3.33;;;;;;;20.59;75.36;102223.13;5035129;28;20021;-69
2022/06/11 10:14:29;;;;;;;16.65;2.65;;;;;;;20.51;74.01;102224.06;5028903;28;20132;-68
2022/06/11 10:17:01;;;;;;;21.13;4.72;;;;;;;20.53;76.56;102232.06;5026595;28;20072;-69
2022/06/11 10:19:40;;;;;;;11.68;3.25;;;;;;;20.55;76.81;102232.94;5025702;28;20367;-68
2022/06/11 10:22:28;;;;;;;21.92;3.78;;;;;;;20.60;79.09;102236.50;5030076;28;20052;-68
2022/06/11 10:25:06;;;;;;;19.33;4.25;;;;;;;20.52;83.37;102243.66;5033711;28;20036;-70
2022/06/11 10:27:37;;;;;;;20.02;3.72;;;;;;;20.75;84.87;102251.63;5032480;28;20057;-71
2022/06/11 10:30:18;;;;;;;14.98;3.35;;;;;;;21.02;80.64;102247.09;5035477;28;20033;-70
2022/06/11 10:32:47;;;;;;;20.05;4.22;;;;;;;21.08;77.95;102241.72;5023618;28;20076;-70
2022/06/11 10:35:12;;;;;;;24.00;3.75;;;;;;;20.77;79.07;102249.88;5015805;28;20444;-71
2022/06/11 10:37:44;;;;;;;18.40;3.17;;;;;;;20.84;81.26;102245.38;5018808;28;20156;-71
2022/06/11 10:40:31;;;;;;;13.50;3.13;;;;;;;20.96;76.87;102242.66;5021137;28;20277;-71
2022/06/11 10:43:04;;;;;;;19.23;3.38;;;;;;;21.20;75.18;102244.31;5018203;28;20323;-72
2022/06/11 10:45:31;;;;;;;;;;;;;;;20.86;71.43;102241.81;5034028;28;20484;-70
2022/06/11 10:47:59;;;;;;;19.17;3.50;;;;;;;20.44;76.03;102238.31;5029626;28;19974;-71
2022/06/11 10:50:35;;;;;;;16.15;3.50;;;;;;;20.60;80.06;102243.66;5023490;28;20046;-70
2022/06/11 10:53:01;;;;;;;17.85;3.45;;;;;;;20.69;76.86;102240.97;5027887;28;20059;-71
2022/06/11 10:55:44;;;;;;;16.20;3.22;;;;;;;20.50;75.39;102241.00;5025275;28;20120;-70
2022/06/11 10:58:33;;;;;;;14.30;3.30;;;;;;;20.34;76.89;102239.25;5030869;28;20029;-70
2022/06/11 11:01:14;;;;;;;13.98;3.70;;;;;;;20.65;74.46;102245.41;5032671;28;20029;-71
2022/06/11 11:03:55;;;;;;;17.60;2.97;;;;;;;20.63;73.75;102235.59;5022470;28;20552;-71
2022/06/11 11:06:30;;;;;;;18.05;3.45;;;;;;;20.69;76.58;102238.31;5030831;28;20547;-70
2022/06/11 11:08:59;;;;;;;17.85;4.07;;;;;;;20.67;77.42;102238.28;5030846;28;20388;-70
2022/06/11 11:11:34;;;;;;;19.58;3.45;;;;;;;20.70;77.89;102242.75;5022986;28;20037;-70
2022/06/11 11:14:16;;;;;;;16.33;3.67;;;;;;;20.94;78.83;102240.88;5022791;28;20121;-72
2022/06/11 11:16:47;;;;;;;18.67;3.05;;;;;;;21.05;72.88;102234.59;5031196;28;20029;-71
2022/06/11 11:19:31;;;;;;;17.33;3.13;;;;;;;20.96;72.29;102242.66;5029288;28;20029;-71
2022/06/11 11:22:07;;;;;;;15.52;2.53;;;;;;;21.12;69.60;102234.53;5033009;28;20540;-70
2022/06/11 11:24:44;;;;;;;16.30;3.83;;;;;;;21.31;70.07;102236.25;5038652;28;20104;-70
2022/06/11 11:27:15;;;;;;;23.35;3.90;;;;;;;21.42;69.75;102238.84;5027528;28;20131;-72
2022/06/11 11:29:49;;;;;;;13.13;2.25;;;;;;;21.66;69.16;102242.28;5045500;28;20028;-71